Portoroz, Slovenia
Current Conditions -  °F | °C
As of 11:30 PM on Monday 22 Dec 2014 (Local Time) from LJPZ Reporting Station
Overcast Overcast  
Wind Chill: 46°   Ceiling: 1600
Heat Index: 46°   Visibility: 5mi
Dew Point: 41°   Wind: 2mph
Humidity: 81%   Direction: 120°ESE
Pressure: 30.39"   Gusts: NA
Location:  45.52°N, 13.58°E
Report Text: LJPZ 222130Z AUTO 12002KT 8000 OVC016/// 08/05 Q1029
Loading
Personal Weather Stations






























Interactive Weather Map New forecast layout! Learn more

10-Day Weather Forecast

Advertisements
Track Severe Weather on mobile